Time,TemperatureF,DewpointF,PressureIn,WindDirection,WindDirectionDegrees,WindSpeedMPH,WindSpeedGustMPH,Humidity,HourlyPrecipIn,Conditions,Clouds,dailyrainin,SoftwareType,DateUTC
2013-04-22 00:00:00,46.2,38.4,30.35,SSE,147,10.0,10.0,74,0.00,,,0.00,Wunderground v.1.15,2013-04-22 05:00:00,
2013-04-22 00:05:00,46.1,38.3,30.35,SSE,148,10.0,10.0,74,0.00,,,0.00,Wunderground v.1.15,2013-04-22 05:05:00,
2013-04-22 00:50:00,45.0,37.9,30.34,SSE,158,7.0,7.0,76,0.00,,,0.00,Wunderground v.1.15,2013-04-22 05:50:00,
2013-04-22 00:55:00,44.7,37.9,30.34,SE,145,6.0,9.0,77,0.00,,,0.00,Wunderground v.1.15,2013-04-22 05:55:00,
2013-04-22 01:00:00,44.3,37.5,30.34,SE,140,6.0,6.0,77,0.00,,,0.00,Wunderground v.1.15,2013-04-22 06:00:00,
2013-04-22 01:05:00,43.9,37.5,30.34,SSE,156,5.0,6.0,78,0.00,,,0.00,Wunderground v.1.15,2013-04-22 06:05:00,
2013-04-22 01:15:00,43.9,37.5,30.34,SE,146,6.0,7.0,78,0.00,,,0.00,Wunderground v.1.15,2013-04-22 06:15:00,
2013-04-22 01:20:00,43.8,37.4,30.34,SE,134,6.0,6.0,78,0.00,,,0.00,Wunderground v.1.15,2013-04-22 06:20:00,
2013-04-22 01:30:00,43.7,37.3,30.34,SSE,157,6.0,6.0,78,0.00,,,0.00,Wunderground v.1.15,2013-04-22 06:30:00,
2013-04-22 01:35:00,43.6,37.2,30.34,SSE,147,5.0,6.0,78,0.00,,,0.00,Wunderground v.1.15,2013-04-22 06:35:00,
2013-04-22 01:40:00,43.4,37.0,30.33,SE,132,5.0,5.0,78,0.00,,,0.00,Wunderground v.1.15,2013-04-22 06:40:00,
2013-04-22 01:45:00,43.4,37.0,30.33,SE,142,5.0,5.0,78,0.00,,,0.00,Wunderground v.1.15,2013-04-22 06:45:00,
2013-04-22 01:55:00,43.3,36.9,30.33,SE,126,5.0,5.0,78,0.00,,,0.00,Wunderground v.1.15,2013-04-22 06:55:00,
2013-04-22 02:00:00,43.3,36.9,30.33,SE,134,4.0,5.0,78,0.00,,,0.00,Wunderground v.1.15,2013-04-22 07:00:00,
2013-04-22 02:05:00,43.3,36.9,30.33,SE,146,2.0,5.0,78,0.00,,,0.00,Wunderground v.1.15,2013-04-22 07:05:00,
2013-04-22 02:15:00,43.1,36.7,30.33,SE,146,0.0,1.0,78,0.00,,,0.00,Wunderground v.1.15,2013-04-22 07:15:00,
2013-04-22 02:20:00,43.1,36.7,30.33,SE,142,0.0,0.0,78,0.00,,,0.00,Wunderground v.1.15,2013-04-22 07:20:00,
2013-04-22 02:25:00,43.1,36.7,30.33,SSE,155,0.0,0.0,78,0.00,,,0.00,Wunderground v.1.15,2013-04-22 07:25:00,
2013-04-22 02:30:00,43.2,36.8,30.33,SSE,156,1.0,2.0,78,0.00,,,0.00,Wunderground v.1.15,2013-04-22 07:30:00,
2013-04-22 02:35:00,43.4,37.0,30.33,SSE,156,1.0,2.0,78,0.00,,,0.00,Wunderground v.1.15,2013-04-22 07:35:00,
2013-04-22 02:45:00,43.4,37.0,30.33,SSE,156,0.0,0.0,78,0.00,,,0.00,Wunderground v.1.15,2013-04-22 07:45:00,
2013-04-22 02:50:00,43.6,36.9,30.33,SSE,161,1.0,2.0,77,0.00,,,0.00,Wunderground v.1.15,2013-04-22 07:50:00,
2013-04-22 02:55:00,43.7,37.0,30.33,SE,139,3.0,3.0,77,0.00,,,0.00,Wunderground v.1.15,2013-04-22 07:55:00,
2013-04-22 03:00:00,43.7,37.0,30.33,SSE,156,3.0,4.0,77,0.00,,,0.00,Wunderground v.1.15,2013-04-22 08:00:00,
2013-04-22 03:05:00,43.9,37.2,30.33,SE,138,5.0,8.0,77,0.00,,,0.00,Wunderground v.1.15,2013-04-22 08:05:00,
2013-04-22 03:15:00,44.0,36.9,30.32,SE,140,7.0,7.0,76,0.00,,,0.00,Wunderground v.1.15,2013-04-22 08:15:00,
2013-04-22 03:20:00,43.9,36.8,30.33,SSE,158,6.0,6.0,76,0.00,,,0.00,Wunderground v.1.15,2013-04-22 08:20:00,
2013-04-22 03:25:00,43.9,36.8,30.33,SSE,149,5.0,6.0,76,0.00,,,0.00,Wunderground v.1.15,2013-04-22 08:25:00,
2013-04-22 03:30:00,43.9,36.8,30.33,SW,220,2.0,2.0,76,0.00,,,0.00,Wunderground v.1.15,2013-04-22 08:30:00,
2013-04-22 03:35:00,43.9,37.2,30.33,SSE,160,0.0,5.0,77,0.00,,,0.00,Wunderground v.1.15,2013-04-22 08:35:00,
2013-04-22 03:45:00,43.9,36.8,30.33,SSE,154,2.0,4.0,76,0.00,,,0.00,Wunderground v.1.15,2013-04-22 08:45:00,
2013-04-22 03:50:00,43.9,36.8,30.33,SSE,154,1.0,1.0,76,0.00,,,0.00,Wunderground v.1.15,2013-04-22 08:50:00,
2013-04-22 03:55:00,43.9,36.8,30.32,SSE,153,0.0,2.0,76,0.00,,,0.00,Wunderground v.1.15,2013-04-22 08:55:00,
2013-04-22 04:00:00,43.9,36.8,30.32,SSE,163,2.0,5.0,76,0.00,,,0.00,Wunderground v.1.15,2013-04-22 09:00:00,
2013-04-22 04:05:00,44.3,36.9,30.32,SSE,164,4.0,5.0,75,0.00,,,0.00,Wunderground v.1.15,2013-04-22 09:05:00,
2013-04-22 04:15:00,44.5,36.7,30.32,South,169,3.0,4.0,74,0.00,,,0.00,Wunderground v.1.15,2013-04-22 09:15:00,
2013-04-22 04:20:00,44.4,36.6,30.32,SSE,160,2.0,4.0,74,0.00,,,0.00,Wunderground v.1.15,2013-04-22 09:20:00,
2013-04-22 04:25:00,44.3,36.5,30.31,SSE,165,3.0,4.0,74,0.00,,,0.00,Wunderground v.1.15,2013-04-22 09:25:00,
2013-04-22 04:30:00,44.3,36.5,30.31,SSE,150,4.0,5.0,74,0.00,,,0.00,Wunderground v.1.15,2013-04-22 09:30:00,
2013-04-22 04:40:00,44.3,36.5,30.31,SSE,152,3.0,3.0,74,0.00,,,0.00,Wunderground v.1.15,2013-04-22 09:40:00,
2013-04-22 04:45:00,44.1,36.3,30.31,South,175,2.0,3.0,74,0.00,,,0.00,Wunderground v.1.15,2013-04-22 09:45:00,
2013-04-22 04:50:00,44.1,36.7,30.31,SSE,148,3.0,6.0,75,0.00,,,0.00,Wunderground v.1.15,2013-04-22 09:50:00,
2013-04-22 04:55:00,44.0,36.6,30.31,SSE,163,4.0,6.0,75,0.00,,,0.00,Wunderground v.1.15,2013-04-22 09:55:00,
2013-04-22 05:05:00,43.8,36.4,30.31,SSE,155,4.0,5.0,75,0.00,,,0.00,Wunderground v.1.15,2013-04-22 10:05:00,
2013-04-22 05:15:00,43.5,36.4,30.31,SE,140,3.0,4.0,76,0.00,,,0.00,Wunderground v.1.15,2013-04-22 10:15:00,
2013-04-22 05:20:00,43.3,35.9,30.31,SSE,157,2.0,6.0,75,0.00,,,0.00,Wunderground v.1.15,2013-04-22 10:20:00,
2013-04-22 05:30:00,43.0,36.0,30.30,SSE,155,2.0,2.0,76,0.00,,,0.00,Wunderground v.1.15,2013-04-22 10:30:00,
2013-04-22 05:35:00,42.9,35.9,30.30,South,169,1.0,2.0,76,0.00,,,0.00,Wunderground v.1.15,2013-04-22 10:35:00,
2013-04-22 05:40:00,42.9,35.9,30.30,SSE,161,2.0,5.0,76,0.00,,,0.00,Wunderground v.1.15,2013-04-22 10:40:00,
2013-04-22 05:45:00,42.9,35.9,30.30,SSE,159,3.0,6.0,76,0.00,,,0.00,Wunderground v.1.15,2013-04-22 10:45:00,
2013-04-22 05:50:00,42.9,35.9,30.30,SE,146,4.0,5.0,76,0.00,,,0.00,Wunderground v.1.15,2013-04-22 10:50:00,
2013-04-22 05:55:00,43.0,36.0,30.30,SSE,148,4.0,5.0,76,0.00,,,0.00,Wunderground v.1.15,2013-04-22 10:55:00,
2013-04-22 06:00:00,43.1,36.0,30.30,SSE,158,4.0,4.0,76,0.00,,,0.00,Wunderground v.1.15,2013-04-22 11:00:00,
2013-04-22 06:05:00,43.1,35.7,30.30,South,177,4.0,4.0,75,0.00,,,0.00,Wunderground v.1.15,2013-04-22 11:05:00,
2013-04-22 06:15:00,43.0,35.6,30.30,SE,140,5.0,8.0,75,0.00,,,0.00,Wunderground v.1.15,2013-04-22 11:15:00,
2013-04-22 06:20:00,43.0,35.6,30.30,SSE,150,6.0,6.0,75,0.00,,,0.00,Wunderground v.1.15,2013-04-22 11:20:00,
2013-04-22 06:25:00,43.1,36.0,30.30,SSE,149,6.0,7.0,76,0.00,,,0.00,Wunderground v.1.15,2013-04-22 11:25:00,
2013-04-22 06:30:00,43.2,35.8,30.30,SSE,154,6.0,7.0,75,0.00,,,0.00,Wunderground v.1.15,2013-04-22 11:30:00,
2013-04-22 06:40:00,43.3,35.9,30.31,SSE,165,6.0,6.0,75,0.00,,,0.00,Wunderground v.1.15,2013-04-22 11:40:00,
2013-04-22 06:45:00,43.2,35.8,30.31,SSE,156,4.0,6.0,75,0.00,,,0.00,Wunderground v.1.15,2013-04-22 11:45:00,
2013-04-22 06:50:00,43.1,35.7,30.31,SSE,156,3.0,3.0,75,0.00,,,0.00,Wunderground v.1.15,2013-04-22 11:50:00,
2013-04-22 06:55:00,43.1,35.7,30.31,SSE,157,2.0,3.0,75,0.00,,,0.00,Wunderground v.1.15,2013-04-22 11:55:00,
2013-04-22 07:00:00,43.0,35.6,30.31,SSE,157,0.0,2.0,75,0.00,,,0.00,Wunderground v.1.15,2013-04-22 12:00:00,
2013-04-22 07:05:00,42.9,35.9,30.31,SSE,156,1.0,2.0,76,0.00,,,0.00,Wunderground v.1.15,2013-04-22 12:05:00,
2013-04-22 07:15:00,42.9,35.9,30.32,SSE,156,1.0,1.0,76,0.00,,,0.00,Wunderground v.1.15,2013-04-22 12:15:00,
2013-04-22 07:20:00,43.1,36.0,30.32,SSE,157,1.0,5.0,76,0.00,,,0.00,Wunderground v.1.15,2013-04-22 12:20:00,
2013-04-22 07:25:00,43.4,36.0,30.31,SSE,157,3.0,6.0,75,0.00,,,0.00,Wunderground v.1.15,2013-04-22 12:25:00,
2013-04-22 07:30:00,43.8,36.0,30.31,SSE,148,5.0,6.0,74,0.00,,,0.00,Wunderground v.1.15,2013-04-22 12:30:00,
2013-04-22 07:40:00,44.3,36.2,30.31,SSE,150,7.0,8.0,73,0.00,,,0.00,Wunderground v.1.15,2013-04-22 12:40:00,
2013-04-22 07:45:00,44.7,36.6,30.31,SE,139,7.0,8.0,73,0.00,,,0.00,Wunderground v.1.15,2013-04-22 12:45:00,
2013-04-22 07:50:00,45.0,36.5,30.30,SSE,157,7.0,7.0,72,0.00,,,0.00,Wunderground v.1.15,2013-04-22 12:50:00,
2013-04-22 07:55:00,45.4,36.5,30.30,SSE,161,8.0,8.0,71,0.00,,,0.00,Wunderground v.1.15,2013-04-22 12:55:00,
2013-04-22 08:00:00,45.8,36.9,30.30,SSE,163,7.0,7.0,71,0.00,,,0.00,Wunderground v.1.15,2013-04-22 13:00:00,
2013-04-22 08:05:00,46.2,37.0,30.30,SSE,155,6.0,7.0,70,0.00,,,0.00,Wunderground v.1.15,2013-04-22 13:05:00,
2013-04-22 08:15:00,47.0,37.0,30.30,SSE,155,7.0,8.0,68,0.00,,,0.00,Wunderground v.1.15,2013-04-22 13:15:00,
2013-04-22 08:20:00,47.4,37.0,30.30,SE,142,8.0,8.0,67,0.00,,,0.00,Wunderground v.1.15,2013-04-22 13:20:00,
2013-04-22 08:25:00,47.9,37.8,30.30,South,188,7.0,8.0,68,0.00,,,0.00,Wunderground v.1.15,2013-04-22 13:25:00,
2013-04-22 08:30:00,48.7,37.8,30.29,SSE,148,5.0,7.0,66,0.00,,,0.00,Wunderground v.1.15,2013-04-22 13:30:00,
2013-04-22 08:35:00,48.9,37.6,30.29,SSE,163,6.0,7.0,65,0.00,,,0.00,Wunderground v.1.15,2013-04-22 13:35:00,
2013-04-22 08:40:00,49.2,37.9,30.30,South,184,6.0,6.0,65,0.00,,,0.00,Wunderground v.1.15,2013-04-22 13:40:00,
2013-04-22 08:45:00,49.2,37.5,30.30,South,175,5.0,6.0,64,0.00,,,0.00,Wunderground v.1.15,2013-04-22 13:45:00,
2013-04-22 08:55:00,49.2,37.9,30.29,SSE,153,4.0,8.0,65,0.00,,,0.00,Wunderground v.1.15,2013-04-22 13:55:00,
2013-04-22 09:00:00,49.4,37.7,30.30,SSE,159,4.0,4.0,64,0.00,,,0.00,Wunderground v.1.15,2013-04-22 14:00:00,
2013-04-22 09:05:00,49.8,38.1,30.29,South,175,5.0,10.0,64,0.00,,,0.00,Wunderground v.1.15,2013-04-22 14:05:00,
2013-04-22 09:15:00,50.2,38.1,30.29,SE,136,6.0,7.0,63,0.00,,,0.00,Wunderground v.1.15,2013-04-22 14:15:00,
2013-04-22 09:20:00,50.3,37.8,30.29,SE,136,7.0,10.0,62,0.00,,,0.00,Wunderground v.1.15,2013-04-22 14:20:00,
2013-04-22 09:25:00,50.5,38.8,30.29,SSE,160,7.0,10.0,64,0.00,,,0.00,Wunderground v.1.15,2013-04-22 14:25:00,
2013-04-22 09:30:00,51.0,38.4,30.29,SE,144,7.0,7.0,62,0.00,,,0.00,Wunderground v.1.15,2013-04-22 14:30:00,
2013-04-22 09:35:00,51.5,39.7,30.29,SE,125,6.0,7.0,64,0.00,,,0.00,Wunderground v.1.15,2013-04-22 14:35:00,
2013-04-22 09:40:00,52.0,40.2,30.29,SSE,163,5.0,6.0,64,0.00,,,0.00,Wunderground v.1.15,2013-04-22 14:40:00,
2013-04-22 09:45:00,52.1,39.5,30.29,South,178,6.0,6.0,62,0.00,,,0.00,Wunderground v.1.15,2013-04-22 14:45:00,
2013-04-22 09:55:00,52.6,39.5,30.29,SE,140,8.0,11.0,61,0.00,,,0.00,Wunderground v.1.15,2013-04-22 14:55:00,
2013-04-22 10:00:00,53.0,39.9,30.29,SE,145,7.0,7.0,61,0.00,,,0.00,Wunderground v.1.15,2013-04-22 15:00:00,
2013-04-22 10:05:00,53.1,39.1,30.29,SSE,160,4.0,7.0,59,0.00,,,0.00,Wunderground v.1.15,2013-04-22 15:05:00,
2013-04-22 10:15:00,53.7,39.7,30.28,South,169,6.0,6.0,59,0.00,,,0.00,Wunderground v.1.15,2013-04-22 15:15:00,
2013-04-22 10:20:00,54.1,40.5,30.29,South,178,4.0,4.0,60,0.00,,,0.00,Wunderground v.1.15,2013-04-22 15:20:00,
2013-04-22 10:25:00,54.4,40.4,30.29,South,179,3.0,8.0,59,0.00,,,0.00,Wunderground v.1.15,2013-04-22 15:25:00,
2013-04-22 10:30:00,54.6,40.1,30.29,South,180,5.0,5.0,58,0.00,,,0.00,Wunderground v.1.15,2013-04-22 15:30:00,
2013-04-22 10:35:00,54.7,40.2,30.29,South,171,6.0,6.0,58,0.00,,,0.00,Wunderground v.1.15,2013-04-22 15:35:00,
2013-04-22 10:40:00,55.1,40.6,30.28,SSE,155,6.0,10.0,58,0.00,,,0.00,Wunderground v.1.15,2013-04-22 15:40:00,
2013-04-22 10:45:00,55.3,40.8,30.28,SSW,196,8.0,10.0,58,0.00,,,0.00,Wunderground v.1.15,2013-04-22 15:45:00,
2013-04-22 10:55:00,56.2,41.2,30.28,SSE,152,8.0,9.0,57,0.00,,,0.00,Wunderground v.1.15,2013-04-22 15:55:00,
2013-04-22 11:00:00,56.8,41.3,30.28,South,179,7.0,11.0,56,0.00,,,0.00,Wunderground v.1.15,2013-04-22 16:00:00,
2013-04-22 11:05:00,57.2,41.2,30.28,SE,143,7.0,11.0,55,0.00,,,0.00,Wunderground v.1.15,2013-04-22 16:05:00,
2013-04-22 11:15:00,57.5,41.9,30.27,South,169,7.0,7.0,56,0.00,,,0.00,Wunderground v.1.15,2013-04-22 16:15:00,
2013-04-22 11:20:00,58.4,42.3,30.27,South,172,6.0,6.0,55,0.00,,,0.00,Wunderground v.1.15,2013-04-22 16:20:00,
2013-04-22 11:25:00,58.6,42.0,30.27,SE,136,5.0,6.0,54,0.00,,,0.00,Wunderground v.1.15,2013-04-22 16:25:00,
2013-04-22 11:30:00,59.0,41.4,30.27,ESE,107,6.0,6.0,52,0.00,,,0.00,Wunderground v.1.15,2013-04-22 16:30:00,
2013-04-22 11:40:00,60.0,42.3,30.26,SSE,167,5.0,6.0,52,0.00,,,0.00,Wunderground v.1.15,2013-04-22 16:40:00,
2013-04-22 11:45:00,60.0,41.3,30.26,SSE,148,7.0,8.0,50,0.00,,,0.00,Wunderground v.1.15,2013-04-22 16:45:00,
2013-04-22 11:55:00,60.0,41.3,30.26,SSE,160,8.0,12.0,50,0.00,,,0.00,Wunderground v.1.15,2013-04-22 16:55:00,
2013-04-22 12:00:00,60.4,42.7,30.26,SSW,213,9.0,9.0,52,0.00,,,0.00,Wunderground v.1.15,2013-04-22 17:00:00,
2013-04-22 12:05:00,61.1,42.3,30.25,SSW,203,8.0,9.0,50,0.00,,,0.00,Wunderground v.1.15,2013-04-22 17:05:00,
2013-04-22 12:15:00,61.8,44.0,30.24,SE,129,6.0,8.0,52,0.00,,,0.00,Wunderground v.1.15,2013-04-22 17:15:00,
2013-04-22 12:25:00,62.5,42.5,30.24,WNW,292,6.0,6.0,48,0.00,,,0.00,Wunderground v.1.15,2013-04-22 17:25:00,
2013-04-22 12:30:00,62.8,43.9,30.24,SE,130,7.0,8.0,50,0.00,,,0.00,Wunderground v.1.15,2013-04-22 17:30:00,
2013-04-22 12:40:00,63.4,43.9,30.23,SSE,156,6.0,11.0,49,0.00,,,0.00,Wunderground v.1.15,2013-04-22 17:40:00,
2013-04-22 12:45:00,62.5,42.0,30.23,SE,138,7.0,11.0,47,0.00,,,0.00,Wunderground v.1.15,2013-04-22 17:45:00,
2013-04-22 12:50:00,62.7,43.3,30.23,South,173,10.0,12.0,49,0.00,,,0.00,Wunderground v.1.15,2013-04-22 17:50:00,
2013-04-22 13:00:00,62.5,44.1,30.22,South,175,9.0,9.0,51,0.00,,,0.00,Wunderground v.1.15,2013-04-22 18:00:00,
2013-04-22 13:05:00,63.1,44.2,30.22,South,171,9.0,9.0,50,0.00,,,0.00,Wunderground v.1.15,2013-04-22 18:05:00,
2013-04-22 13:15:00,63.0,43.0,30.22,South,172,9.0,9.0,48,0.00,,,0.00,Wunderground v.1.15,2013-04-22 18:15:00,
2013-04-22 13:20:00,63.2,42.6,30.21,South,171,7.0,10.0,47,0.00,,,0.00,Wunderground v.1.15,2013-04-22 18:20:00,
2013-04-22 13:25:00,64.1,43.4,30.21,SSE,154,5.0,10.0,47,0.00,,,0.00,Wunderground v.1.15,2013-04-22 18:25:00,
2013-04-22 13:30:00,64.1,42.9,30.21,SE,129,7.0,9.0,46,0.00,,,0.00,Wunderground v.1.15,2013-04-22 18:30:00,
2013-04-22 13:40:00,64.5,45.4,30.20,SSE,158,8.0,8.0,50,0.00,,,0.00,Wunderground v.1.15,2013-04-22 18:40:00,
2013-04-22 13:45:00,64.5,44.4,30.20,SE,132,8.0,8.0,48,0.00,,,0.00,Wunderground v.1.15,2013-04-22 18:45:00,
2013-04-22 13:50:00,65.5,45.8,30.19,SE,138,7.0,15.0,49,0.00,,,0.00,Wunderground v.1.15,2013-04-22 18:50:00,
2013-04-22 13:55:00,64.8,44.6,30.19,SE,136,8.0,15.0,48,0.00,,,0.00,Wunderground v.1.15,2013-04-22 18:55:00,
2013-04-22 14:05:00,65.0,44.8,30.19,SE,144,8.0,10.0,48,0.00,,,0.00,Wunderground v.1.15,2013-04-22 19:05:00,
2013-04-22 14:15:00,65.2,42.7,30.18,SSE,168,10.0,10.0,44,0.00,,,0.00,Wunderground v.1.15,2013-04-22 19:15:00,
2013-04-22 14:20:00,65.6,44.3,30.18,SE,137,8.0,13.0,46,0.00,,,0.00,Wunderground v.1.15,2013-04-22 19:20:00,
2013-04-22 14:25:00,65.6,43.1,30.17,SE,138,9.0,14.0,44,0.00,,,0.00,Wunderground v.1.15,2013-04-22 19:25:00,
2013-04-22 14:35:00,65.0,42.5,30.16,SSE,159,11.0,13.0,44,0.00,,,0.00,Wunderground v.1.15,2013-04-22 19:35:00,
2013-04-22 14:40:00,64.8,44.1,30.16,SE,140,12.0,13.0,47,0.00,,,0.00,Wunderground v.1.15,2013-04-22 19:40:00,
2013-04-22 14:45:00,64.9,43.6,30.16,SSE,148,12.0,13.0,46,0.00,,,0.00,Wunderground v.1.15,2013-04-22 19:45:00,
2013-04-22 14:50:00,64.9,43.0,30.16,SE,134,12.0,12.0,45,0.00,,,0.00,Wunderground v.1.15,2013-04-22 19:50:00,
2013-04-22 14:55:00,64.9,43.0,30.16,SSE,150,12.0,14.0,45,0.00,,,0.00,Wunderground v.1.15,2013-04-22 19:55:00,
2013-04-22 15:00:00,64.4,43.2,30.15,South,170,12.0,12.0,46,0.00,,,0.00,Wunderground v.1.15,2013-04-22 20:00:00,
2013-04-22 15:05:00,64.3,41.9,30.15,SSE,152,11.0,13.0,44,0.00,,,0.00,Wunderground v.1.15,2013-04-22 20:05:00,
2013-04-22 15:15:00,65.0,44.3,30.15,SE,135,12.0,12.0,47,0.00,,,0.00,Wunderground v.1.15,2013-04-22 20:15:00,
2013-04-22 15:20:00,65.4,42.9,30.15,SSE,157,12.0,14.0,44,0.00,,,0.00,Wunderground v.1.15,2013-04-22 20:20:00,
2013-04-22 15:30:00,65.9,43.9,30.14,SE,141,12.0,12.0,45,0.00,,,0.00,Wunderground v.1.15,2013-04-22 20:30:00,
2013-04-22 15:35:00,65.8,43.3,30.14,South,188,12.0,12.0,44,0.00,,,0.00,Wunderground v.1.15,2013-04-22 20:35:00,
2013-04-22 15:40:00,65.6,41.3,30.14,SSE,161,12.0,14.0,41,0.00,,,0.00,Wunderground v.1.15,2013-04-22 20:40:00,
2013-04-22 15:45:00,65.7,42.0,30.14,SSE,166,11.0,14.0,42,0.00,,,0.00,Wunderground v.1.15,2013-04-22 20:45:00,
2013-04-22 15:50:00,66.0,42.2,30.13,SSE,167,10.0,10.0,42,0.00,,,0.00,Wunderground v.1.15,2013-04-22 20:50:00,
2013-04-22 15:55:00,65.6,42.5,30.13,SE,141,10.0,10.0,43,0.00,,,0.00,Wunderground v.1.15,2013-04-22 20:55:00,
2013-04-22 16:00:00,65.6,43.1,30.13,South,172,11.0,11.0,44,0.00,,,0.00,Wunderground v.1.15,2013-04-22 21:00:00,
2013-04-22 16:05:00,65.2,42.7,30.12,SE,124,11.0,12.0,44,0.00,,,0.00,Wunderground v.1.15,2013-04-22 21:05:00,
2013-04-22 16:15:00,65.3,44.5,30.11,SSE,155,10.0,10.0,47,0.00,,,0.00,Wunderground v.1.15,2013-04-22 21:15:00,
2013-04-22 16:20:00,65.3,44.5,30.11,SE,138,11.0,11.0,47,0.00,,,0.00,Wunderground v.1.15,2013-04-22 21:20:00,
2013-04-22 16:25:00,65.3,43.4,30.11,SSE,150,11.0,11.0,45,0.00,,,0.00,Wunderground v.1.15,2013-04-22 21:25:00,
2013-04-22 16:30:00,65.3,43.4,30.11,SE,132,10.0,10.0,45,0.00,,,0.00,Wunderground v.1.15,2013-04-22 21:30:00,
2013-04-22 16:35:00,65.2,43.3,30.10,SSE,148,9.0,10.0,45,0.00,,,0.00,Wunderground v.1.15,2013-04-22 21:35:00,
2013-04-22 16:45:00,64.5,42.1,30.10,South,169,11.0,11.0,44,0.00,,,0.00,Wunderground v.1.15,2013-04-22 21:45:00,
2013-04-22 16:50:00,64.4,43.2,30.11,SSE,156,10.0,10.0,46,0.00,,,0.00,Wunderground v.1.15,2013-04-22 21:50:00,
2013-04-22 16:55:00,64.4,43.7,30.11,SSE,147,8.0,10.0,47,0.00,,,0.00,Wunderground v.1.15,2013-04-22 21:55:00,
2013-04-22 17:00:00,64.4,42.6,30.11,South,180,8.0,9.0,45,0.00,,,0.00,Wunderground v.1.15,2013-04-22 22:00:00,
2013-04-22 17:05:00,64.0,42.8,30.11,SSE,159,10.0,10.0,46,0.00,,,0.00,Wunderground v.1.15,2013-04-22 22:05:00,
2013-04-22 17:15:00,64.4,43.2,30.11,SE,146,11.0,12.0,46,0.00,,,0.00,Wunderground v.1.15,2013-04-22 22:15:00,
2013-04-22 17:20:00,64.9,44.2,30.10,SSE,148,11.0,11.0,47,0.00,,,0.00,Wunderground v.1.15,2013-04-22 22:20:00,
2013-04-22 17:25:00,64.9,41.9,30.10,South,179,12.0,12.0,43,0.00,,,0.00,Wunderground v.1.15,2013-04-22 22:25:00,
2013-04-22 17:30:00,64.9,42.5,30.10,SE,134,11.0,14.0,44,0.00,,,0.00,Wunderground v.1.15,2013-04-22 22:30:00,
2013-04-22 17:35:00,64.3,41.3,30.10,SE,146,11.0,15.0,43,0.00,,,0.00,Wunderground v.1.15,2013-04-22 22:35:00,
2013-04-22 17:45:00,64.3,42.5,30.10,SE,133,10.0,12.0,45,0.00,,,0.00,Wunderground v.1.15,2013-04-22 22:45:00,
2013-04-22 17:50:00,64.4,42.6,30.10,SE,142,9.0,9.0,45,0.00,,,0.00,Wunderground v.1.15,2013-04-22 22:50:00,
2013-04-22 17:55:00,64.5,42.7,30.10,SE,141,8.0,9.0,45,0.00,,,0.00,Wunderground v.1.15,2013-04-22 22:55:00,
2013-04-22 18:00:00,64.2,43.0,30.10,SE,141,9.0,10.0,46,0.00,,,0.00,Wunderground v.1.15,2013-04-22 23:00:00,
2013-04-22 18:05:00,63.8,42.6,30.10,SSE,159,10.0,13.0,46,0.00,,,0.00,Wunderground v.1.15,2013-04-22 23:05:00,
2013-04-22 18:15:00,63.3,42.7,30.09,SSE,155,10.0,11.0,47,0.00,,,0.00,Wunderground v.1.15,2013-04-22 23:15:00,
2013-04-22 18:20:00,63.1,42.0,30.09,SE,134,9.0,9.0,46,0.00,,,0.00,Wunderground v.1.15,2013-04-22 23:20:00,
2013-04-22 18:25:00,63.0,41.9,30.09,SE,133,8.0,9.0,46,0.00,,,0.00,Wunderground v.1.15,2013-04-22 23:25:00,
2013-04-22 18:30:00,62.8,41.7,30.08,SSE,160,8.0,10.0,46,0.00,,,0.00,Wunderground v.1.15,2013-04-22 23:30:00,
2013-04-22 18:35:00,62.6,42.1,30.08,SE,136,8.0,10.0,47,0.00,,,0.00,Wunderground v.1.15,2013-04-22 23:35:00,
2013-04-22 18:45:00,62.3,42.3,30.08,SE,145,8.0,9.0,48,0.00,,,0.00,Wunderground v.1.15,2013-04-22 23:45:00,
2013-04-22 18:50:00,62.1,42.7,30.08,SSE,155,7.0,9.0,49,0.00,,,0.00,Wunderground v.1.15,2013-04-22 23:50:00,
2013-04-22 19:00:00,61.6,42.8,30.08,SSE,155,7.0,7.0,50,0.00,,,0.00,Wunderground v.1.15,2013-04-23 00:00:00,
2013-04-22 19:05:00,61.4,43.1,30.07,SE,146,7.0,8.0,51,0.00,,,0.00,Wunderground v.1.15,2013-04-23 00:05:00,
2013-04-22 19:15:00,61.0,42.7,30.07,SSE,156,6.0,7.0,51,0.00,,,0.00,Wunderground v.1.15,2013-04-23 00:15:00,
2013-04-22 19:25:00,60.6,42.4,30.07,SE,137,5.0,6.0,51,0.00,,,0.00,Wunderground v.1.15,2013-04-23 00:25:00,
2013-04-22 19:30:00,60.4,42.7,30.07,SSE,153,5.0,5.0,52,0.00,,,0.00,Wunderground v.1.15,2013-04-23 00:30:00,
2013-04-22 19:35:00,60.2,42.5,30.07,SE,144,5.0,5.0,52,0.00,,,0.00,Wunderground v.1.15,2013-04-23 00:35:00,
2013-04-22 19:40:00,59.9,42.2,30.07,SSE,148,5.0,5.0,52,0.00,,,0.00,Wunderground v.1.15,2013-04-23 00:40:00,
2013-04-22 19:45:00,59.7,42.0,30.07,SE,143,5.0,5.0,52,0.00,,,0.00,Wunderground v.1.15,2013-04-23 00:45:00,
2013-04-22 19:55:00,59.0,42.4,30.07,SE,131,4.0,6.0,54,0.00,,,0.00,Wunderground v.1.15,2013-04-23 00:55:00,
2013-04-22 20:00:00,59.0,42.4,30.08,SE,137,4.0,4.0,54,0.00,,,0.00,Wunderground v.1.15,2013-04-23 01:00:00,
2013-04-22 20:05:00,58.7,43.0,30.08,SSE,150,3.0,5.0,56,0.00,,,0.00,Wunderground v.1.15,2013-04-23 01:05:00,
2013-04-22 20:15:00,58.2,42.6,30.08,SSE,150,3.0,4.0,56,0.00,,,0.00,Wunderground v.1.15,2013-04-23 01:15:00,
2013-04-22 20:20:00,57.9,42.8,30.08,SSE,153,3.0,3.0,57,0.00,,,0.00,Wunderground v.1.15,2013-04-23 01:20:00,
2013-04-22 20:25:00,57.7,42.6,30.08,SE,141,2.0,3.0,57,0.00,,,0.00,Wunderground v.1.15,2013-04-23 01:25:00,
2013-04-22 20:30:00,57.6,42.5,30.08,SSE,148,2.0,2.0,57,0.00,,,0.00,Wunderground v.1.15,2013-04-23 01:30:00,
2013-04-22 20:35:00,57.6,42.9,30.08,SSE,159,2.0,2.0,58,0.00,,,0.00,Wunderground v.1.15,2013-04-23 01:35:00,
2013-04-22 20:45:00,57.5,42.8,30.08,SSE,153,3.0,4.0,58,0.00,,,0.00,Wunderground v.1.15,2013-04-23 01:45:00,
2013-04-22 20:55:00,57.5,42.8,30.08,SSE,150,3.0,5.0,58,0.00,,,0.00,Wunderground v.1.15,2013-04-23 01:55:00,
2013-04-22 21:00:00,57.6,42.5,30.08,SSE,155,3.0,6.0,57,0.00,,,0.00,Wunderground v.1.15,2013-04-23 02:00:00,
2013-04-22 21:05:00,57.5,42.8,30.09,SSE,156,4.0,6.0,58,0.00,,,0.00,Wunderground v.1.15,2013-04-23 02:05:00,
2013-04-22 21:15:00,57.2,43.0,30.09,SSE,161,2.0,3.0,59,0.00,,,0.00,Wunderground v.1.15,2013-04-23 02:15:00,
2013-04-22 21:20:00,56.9,43.2,30.09,SSE,161,2.0,2.0,60,0.00,,,0.00,Wunderground v.1.15,2013-04-23 02:20:00,
2013-04-22 21:25:00,56.7,43.0,30.09,SSE,161,2.0,2.0,60,0.00,,,0.00,Wunderground v.1.15,2013-04-23 02:25:00,
2013-04-22 21:30:00,56.5,43.2,30.08,SSE,161,1.0,1.0,61,0.00,,,0.00,Wunderground v.1.15,2013-04-23 02:30:00,
2013-04-22 21:35:00,56.3,43.4,30.09,SSE,159,1.0,4.0,62,0.00,,,0.00,Wunderground v.1.15,2013-04-23 02:35:00,
2013-04-22 21:40:00,56.0,43.2,30.09,SSE,157,1.0,1.0,62,0.00,,,0.00,Wunderground v.1.15,2013-04-23 02:40:00,
2013-04-22 21:50:00,56.0,43.2,30.09,SSE,157,1.0,4.0,62,0.00,,,0.00,Wunderground v.1.15,2013-04-23 02:50:00,
2013-04-22 21:55:00,56.1,43.3,30.09,SSE,156,2.0,4.0,62,0.00,,,0.00,Wunderground v.1.15,2013-04-23 02:55:00,
2013-04-22 22:00:00,56.2,43.3,30.09,SSE,160,3.0,4.0,62,0.00,,,0.00,Wunderground v.1.15,2013-04-23 03:00:00,
2013-04-22 22:05:00,56.5,43.6,30.09,South,178,4.0,7.0,62,0.00,,,0.00,Wunderground v.1.15,2013-04-23 03:05:00,
2013-04-22 22:15:00,56.6,43.7,30.09,South,172,4.0,7.0,62,0.00,,,0.00,Wunderground v.1.15,2013-04-23 03:15:00,
2013-04-22 22:20:00,56.7,43.8,30.09,SE,144,4.0,5.0,62,0.00,,,0.00,Wunderground v.1.15,2013-04-23 03:20:00,
2013-04-22 22:25:00,56.7,43.8,30.10,SSE,165,4.0,5.0,62,0.00,,,0.00,Wunderground v.1.15,2013-04-23 03:25:00,
2013-04-22 22:30:00,56.8,43.9,30.09,SSE,151,4.0,4.0,62,0.00,,,0.00,Wunderground v.1.15,2013-04-23 03:30:00,
2013-04-22 22:35:00,56.6,44.1,30.08,SE,132,4.0,6.0,63,0.00,,,0.00,Wunderground v.1.15,2013-04-23 03:35:00,
2013-04-22 22:40:00,56.7,43.8,30.09,SSE,152,4.0,4.0,62,0.00,,,0.00,Wunderground v.1.15,2013-04-23 03:40:00,
2013-04-22 22:45:00,56.7,44.2,30.09,SSE,157,5.0,5.0,63,0.00,,,0.00,Wunderground v.1.15,2013-04-23 03:45:00,
2013-04-22 22:55:00,56.9,44.0,30.09,SSE,155,4.0,5.0,62,0.00,,,0.00,Wunderground v.1.15,2013-04-23 03:55:00,
2013-04-22 23:00:00,57.2,43.9,30.09,SSE,159,4.0,4.0,61,0.00,,,0.00,Wunderground v.1.15,2013-04-23 04:00:00,
2013-04-22 23:05:00,57.3,44.0,30.09,SSE,161,4.0,6.0,61,0.00,,,0.00,Wunderground v.1.15,2013-04-23 04:05:00,
2013-04-22 23:10:00,57.1,44.2,30.09,SE,144,3.0,4.0,62,0.00,,,0.00,Wunderground v.1.15,2013-04-23 04:10:00,
2013-04-22 23:15:00,56.9,44.0,30.09,SE,144,2.0,5.0,62,0.00,,,0.00,Wunderground v.1.15,2013-04-23 04:15:00,
2013-04-22 23:25:00,57.0,44.5,30.09,SSE,167,4.0,6.0,63,0.00,,,0.00,Wunderground v.1.15,2013-04-23 04:25:00,
2013-04-22 23:30:00,56.8,44.7,30.10,SSW,204,2.0,2.0,64,0.00,,,0.00,Wunderground v.1.15,2013-04-23 04:30:00,
2013-04-22 23:35:00,56.4,45.2,30.10,South,175,0.0,2.0,66,0.00,,,0.00,Wunderground v.1.15,2013-04-23 04:35:00,
2013-04-22 23:40:00,55.9,45.9,30.10,SSE,156,0.0,0.0,69,0.00,,,0.00,Wunderground v.1.15,2013-04-23 04:40:00,
2013-04-22 23:45:00,55.3,46.8,30.11,SW,222,1.0,3.0,73,0.00,,,0.01,Wunderground v.1.15,2013-04-23 04:45:00,
2013-04-22 23:55:00,53.6,47.2,30.10,SSW,196,2.0,3.0,79,0.00,,,0.01,Wunderground v.1.15,2013-04-23 04:55:00,